Time;durP1;ratioP1;P1;durP2;ratioP2;P2;SDS_P1;SDS_P2;PMS_P1;PMS_P2;Temp;Humidity;BMP_temperature;BMP_pressure;BME280_temperature;BME280_humidity;BME280_pressure;Samples;Min_cycle;Max_cycle;Signal;HPM_P1;HPM_P2
2022/12/22 03:26:26;;;;;;;6.30;5.90;;;;;;;;;;4967966;28;20051;-69
2022/12/22 03:28:51;;;;;;;6.18;5.78;;;;;;;;;;4968569;28;20047;-70
2022/12/22 03:31:17;;;;;;;6.90;6.50;;;;;;;;;;4970304;28;20032;-69
2022/12/22 03:33:43;;;;;;;6.68;6.28;;;;;;;;;;4962070;28;20034;-69
2022/12/22 03:36:08;;;;;;;6.63;6.22;;;;;;;;;;4958110;28;20031;-69
2022/12/22 03:38:34;;;;;;;6.20;5.90;;;;;;;;;;4976885;28;20515;-69
2022/12/22 03:41:00;;;;;;;7.10;6.60;;;;;;;;;;4971184;28;20034;-69
2022/12/22 03:46:30;;;;;;;6.57;6.18;;;;;;;;;;4962374;28;20078;-69
2022/12/22 03:49:09;;;;;;;6.90;6.50;;;;;;;;;;4968237;28;20027;-69
2022/12/22 03:51:39;;;;;;;6.10;5.80;;;;;;;;;;4969181;28;20542;-69
2022/12/22 03:54:04;;;;;;;7.22;6.82;;;;;;;;;;4962485;28;20031;-69
2022/12/22 03:56:31;;;;;;;6.55;6.15;;;;;;;;;;4967885;28;20379;-69
2022/12/22 03:58:56;;;;;;;6.20;5.90;;;;;;;;;;4966790;28;20067;-69
2022/12/22 04:01:22;;;;;;;6.72;6.22;;;;;;;;;;4962506;28;20038;-69
2022/12/22 04:03:49;;;;;;;6.70;6.30;;;;;;;;;;4963248;28;20038;-69
2022/12/22 04:06:15;;;;;;;6.32;6.00;;;;;;;;;;4962295;28;20038;-69
2022/12/22 04:12:53;;;;;;;6.70;6.40;;;;;;;;;;4951229;28;20081;-70
2022/12/22 04:15:24;;;;;;;6.40;5.90;;;;;;;;;;4963378;28;20035;-69
2022/12/22 04:17:50;;;;;;;6.55;6.15;;;;;;;;;;4958061;28;20032;-69
2022/12/22 04:20:16;;;;;;;6.32;5.90;;;;;;;;;;4956136;28;20039;-69
2022/12/22 04:22:41;;;;;;;6.47;6.18;;;;;;;;;;4957494;28;20039;-70
2022/12/22 04:25:07;;;;;;;6.80;6.40;;;;;;;;;;4962841;28;20041;-69
2022/12/22 04:27:33;;;;;;;6.70;6.40;;;;;;;;;;4964771;28;20035;-70
2022/12/22 04:29:58;;;;;;;6.60;6.20;;;;;;;;;;4960788;28;20038;-70
2022/12/22 04:32:24;;;;;;;7.07;6.68;;;;;;;;;;4962163;28;20046;-70
2022/12/22 04:34:49;;;;;;;6.85;6.30;;;;;;;;;;4966887;28;20037;-69
2022/12/22 04:37:15;;;;;;;6.97;6.63;;;;;;;;;;4968166;28;20038;-69
2022/12/22 04:39:40;;;;;;;6.60;6.20;;;;;;;;;;4963481;28;20108;-69
2022/12/22 04:42:06;;;;;;;6.65;6.25;;;;;;;;;;4971219;28;20174;-69
2022/12/22 04:44:31;;;;;;;7.15;6.63;;;;;;;;;;4957968;28;20127;-69
2022/12/22 04:46:57;;;;;;;7.10;6.57;;;;;;;;;;4958959;28;20046;-70
2022/12/22 04:49:22;;;;;;;6.45;6.05;;;;;;;;;;4959649;28;20046;-69
2022/12/22 04:51:48;;;;;;;6.90;6.35;;;;;;;;;;4970673;28;20054;-70
2022/12/22 04:54:13;;;;;;;6.80;6.40;;;;;;;;;;4964190;28;20080;-69
2022/12/22 04:56:39;;;;;;;7.00;6.60;;;;;;;;;;4967200;28;20043;-69
2022/12/22 04:59:04;;;;;;;7.53;6.82;;;;;;;;;;4968188;28;20034;-69
2022/12/22 05:01:30;;;;;;;6.30;5.90;;;;;;;;;;4972018;28;20050;-69
2022/12/22 05:03:55;;;;;;;7.72;6.75;;;;;;;;;;4964813;28;20030;-69
2022/12/22 05:06:21;;;;;;;7.35;6.75;;;;;;;;;;4965986;28;20077;-69
2022/12/22 05:08:46;;;;;;;6.95;6.32;;;;;;;;;;4963807;28;20043;-69
2022/12/22 05:11:12;;;;;;;7.00;6.50;;;;;;;;;;4972070;28;20037;-69
2022/12/22 05:13:38;;;;;;;7.30;6.75;;;;;;;;;;4965037;28;20701;-69
2022/12/22 05:16:05;;;;;;;6.97;6.57;;;;;;;;;;4964464;28;20046;-69
2022/12/22 05:18:31;;;;;;;6.32;5.93;;;;;;;;;;4974002;28;20033;-70
2022/12/22 05:20:57;;;;;;;10.02;6.88;;;;;;;;;;4966793;28;20066;-69
2022/12/22 05:23:22;;;;;;;6.93;6.43;;;;;;;;;;4971747;28;20109;-69
2022/12/22 05:25:48;;;;;;;6.53;6.10;;;;;;;;;;4966768;28;20053;-69
2022/12/22 05:28:13;;;;;;;7.20;6.70;;;;;;;;;;4964002;28;20039;-69
2022/12/22 05:30:42;;;;;;;7.75;7.22;;;;;;;;;;4966220;28;20038;-69
2022/12/22 05:33:07;;;;;;;7.53;6.80;;;;;;;;;;4962197;28;20030;-69
2022/12/22 05:35:33;;;;;;;7.05;6.57;;;;;;;;;;4960874;28;20371;-69
2022/12/22 05:37:58;;;;;;;7.18;6.65;;;;;;;;;;4962744;28;20038;-69
2022/12/22 05:40:24;;;;;;;6.85;6.32;;;;;;;;;;4968147;28;20040;-69
2022/12/22 05:42:49;;;;;;;9.27;6.93;;;;;;;;;;4969236;28;20861;-69
2022/12/22 05:45:17;;;;;;;6.88;6.35;;;;;;;;;;4964377;28;20030;-69
2022/12/22 05:47:46;;;;;;;7.83;7.07;;;;;;;;;;4973192;28;20108;-69
2022/12/22 05:50:14;;;;;;;7.53;6.38;;;;;;;;;;4965810;28;20046;-69
2022/12/22 05:52:42;;;;;;;7.15;6.63;;;;;;;;;;4963722;28;20077;-69
2022/12/22 05:55:08;;;;;;;7.45;6.70;;;;;;;;;;4965363;28;20066;-69
2022/12/22 05:57:34;;;;;;;7.05;6.45;;;;;;;;;;4964929;28;20050;-69
2022/12/22 05:59:59;;;;;;;6.70;6.10;;;;;;;;;;4962660;28;20046;-69
2022/12/22 06:02:25;;;;;;;8.20;7.32;;;;;;;;;;4965598;28;20438;-69
2022/12/22 06:04:51;;;;;;;6.95;6.35;;;;;;;;;;4962131;28;20041;-69
2022/12/22 06:07:17;;;;;;;6.82;6.35;;;;;;;;;;4968886;28;20043;-69
2022/12/22 06:09:42;;;;;;;7.07;6.45;;;;;;;;;;4960641;28;20138;-69
2022/12/22 06:12:08;;;;;;;7.95;6.82;;;;;;;;;;4962564;28;20046;-70
2022/12/22 06:14:33;;;;;;;7.20;6.47;;;;;;;;;;4964780;28;20065;-69
2022/12/22 06:16:59;;;;;;;7.10;6.60;;;;;;;;;;4965009;28;20057;-69
2022/12/22 06:19:25;;;;;;;7.15;6.53;;;;;;;;;;4970823;28;20160;-68
2022/12/22 06:21:50;;;;;;;6.97;6.38;;;;;;;;;;4968012;28;20103;-68
2022/12/22 06:24:16;;;;;;;6.72;6.10;;;;;;;;;;4964599;28;20713;-70
2022/12/22 06:26:41;;;;;;;6.70;6.15;;;;;;;;;;4963772;28;20149;-68
2022/12/22 06:29:07;;;;;;;7.53;6.85;;;;;;;;;;4965065;28;20026;-68
2022/12/22 06:31:32;;;;;;;10.65;6.50;;;;;;;;;;4971894;28;20100;-69
2022/12/22 06:33:58;;;;;;;8.63;6.45;;;;;;;;;;4975226;28;20308;-69
2022/12/22 06:36:24;;;;;;;7.53;6.82;;;;;;;;;;4976816;28;20702;-69
2022/12/22 06:38:49;;;;;;;8.18;6.97;;;;;;;;;;4969376;28;20034;-69
2022/12/22 06:43:07;;;;;;;9.73;7.30;;;;;;;;;;4968405;28;20133;-68
2022/12/22 06:44:00;;;;;;;6.63;6.22;;;;;;;;;;4970210;28;20038;-70
2022/12/22 06:46:26;;;;;;;7.68;7.07;;;;;;;;;;4962505;28;20384;-70
2022/12/22 06:48:51;;;;;;;6.78;6.38;;;;;;;;;;4959124;28;20051;-70
2022/12/22 06:51:17;;;;;;;8.48;7.00;;;;;;;;;;4969601;28;20042;-70
2022/12/22 06:53:42;;;;;;;8.35;7.20;;;;;;;;;;4960108;28;20407;-70
2022/12/22 06:56:08;;;;;;;8.32;7.10;;;;;;;;;;4957097;28;20483;-70
2022/12/22 06:58:34;;;;;;;7.53;6.80;;;;;;;;;;4965910;28;20042;-68
2022/12/22 07:00:59;;;;;;;10.60;6.97;;;;;;;;;;4960574;28;20698;-68
2022/12/22 07:03:25;;;;;;;7.60;6.88;;;;;;;;;;4969791;28;20038;-70
2022/12/22 07:05:50;;;;;;;7.25;6.65;;;;;;;;;;4968672;28;20498;-70
2022/12/22 07:08:16;;;;;;;7.38;6.68;;;;;;;;;;4965661;28;20546;-70
2022/12/22 07:10:57;;;;;;;7.38;6.80;;;;;;;;;;4966946;28;20020;-70
2022/12/22 07:13:25;;;;;;;9.85;6.63;;;;;;;;;;4971895;28;20042;-70
2022/12/22 07:15:51;;;;;;;8.38;7.25;;;;;;;;;;4972434;28;20035;-74
2022/12/22 07:18:16;;;;;;;8.40;7.10;;;;;;;;;;4970041;28;20089;-72
2022/12/22 07:20:42;;;;;;;8.00;7.00;;;;;;;;;;4963978;28;20030;-72
2022/12/22 07:23:07;;;;;;;7.50;6.57;;;;;;;;;;4961121;28;20509;-72
2022/12/22 07:25:33;;;;;;;7.20;6.57;;;;;;;;;;4968638;28;20092;-72
2022/12/22 07:27:59;;;;;;;10.93;7.00;;;;;;;;;;4966174;28;20052;-72
2022/12/22 07:30:25;;;;;;;13.20;7.30;;;;;;;;;;4959646;28;20138;-75
2022/12/22 07:32:50;;;;;;;10.00;7.10;;;;;;;;;;4965054;28;20117;-74
2022/12/22 07:35:16;;;;;;;7.93;6.50;;;;;;;;;;4971881;28;20093;-74
2022/12/22 07:37:41;;;;;;;7.68;6.60;;;;;;;;;;4973693;28;20080;-74
2022/12/22 07:40:07;;;;;;;7.05;6.35;;;;;;;;;;4963586;28;20039;-74
2022/12/22 07:42:58;;;;;;;8.90;6.57;;;;;;;;;;4959238;28;20457;-73
2022/12/22 07:45:24;;;;;;;7.05;6.55;;;;;;;;;;4963562;28;20031;-73
2022/12/22 07:47:50;;;;;;;13.07;6.68;;;;;;;;;;4963789;28;20042;-74
2022/12/22 07:50:26;;;;;;;8.05;6.82;;;;;;;;;;4956437;28;20662;-74
2022/12/22 07:52:57;;;;;;;8.13;6.95;;;;;;;;;;4964285;28;20050;-74
2022/12/22 07:55:24;;;;;;;7.50;6.38;;;;;;;;;;4957576;28;20031;-74
2022/12/22 07:58:08;;;;;;;9.77;7.15;;;;;;;;;;4959713;28;20082;-73
2022/12/22 08:00:34;;;;;;;14.55;7.07;;;;;;;;;;4965591;28;20126;-73
2022/12/22 08:03:01;;;;;;;11.73;7.00;;;;;;;;;;4974049;28;20066;-74
2022/12/22 08:05:26;;;;;;;10.45;7.03;;;;;;;;;;4952071;28;20054;-74
2022/12/22 08:07:52;;;;;;;9.25;7.63;;;;;;;;;;4960818;28;20031;-74
2022/12/22 08:10:19;;;;;;;7.78;6.65;;;;;;;;;;4968097;28;20041;-75
2022/12/22 08:12:45;;;;;;;7.93;6.63;;;;;;;;;;4971332;28;20050;-74
2022/12/22 08:15:11;;;;;;;8.60;6.97;;;;;;;;;;4957989;28;20035;-74
2022/12/22 08:17:55;;;;;;;11.15;7.35;;;;;;;;;;4957892;28;20555;-74
2022/12/22 08:20:21;;;;;;;9.85;7.55;;;;;;;;;;4976354;28;20047;-74
2022/12/22 08:22:46;;;;;;;9.98;7.03;;;;;;;;;;4966859;28;20044;-74
2022/12/22 08:25:12;;;;;;;12.27;7.25;;;;;;;;;;4971553;28;20031;-75
2022/12/22 08:27:46;;;;;;;7.53;6.93;;;;;;;;;;4959650;28;20081;-74
2022/12/22 08:30:12;;;;;;;15.55;8.18;;;;;;;;;;4963962;28;20050;-75
2022/12/22 08:32:39;;;;;;;9.80;7.13;;;;;;;;;;4961422;28;20038;-74
2022/12/22 08:35:07;;;;;;;7.65;6.95;;;;;;;;;;4962490;28;20067;-74
2022/12/22 08:37:39;;;;;;;14.65;7.75;;;;;;;;;;4957337;28;20461;-75
2022/12/22 08:40:11;;;;;;;8.43;7.20;;;;;;;;;;4963611;28;20037;-75
2022/12/22 08:42:38;;;;;;;9.20;7.45;;;;;;;;;;4955273;28;20510;-73
2022/12/22 08:45:22;;;;;;;8.35;7.28;;;;;;;;;;4961646;28;20485;-75
2022/12/22 08:47:47;;;;;;;15.27;7.60;;;;;;;;;;4966459;28;20514;-75
2022/12/22 08:50:13;;;;;;;10.07;7.35;;;;;;;;;;4968250;28;20449;-74
2022/12/22 08:52:38;;;;;;;9.70;7.10;;;;;;;;;;4963224;28;20453;-74
2022/12/22 08:55:05;;;;;;;8.13;7.10;;;;;;;;;;4961275;28;20482;-74
2022/12/22 08:57:30;;;;;;;6.88;6.38;;;;;;;;;;4958298;28;20118;-75
2022/12/22 08:59:56;;;;;;;8.13;6.70;;;;;;;;;;4960134;28;20398;-75
2022/12/22 09:02:21;;;;;;;7.45;6.80;;;;;;;;;;4961930;28;20053;-74
2022/12/22 09:04:47;;;;;;;7.82;7.03;;;;;;;;;;4973504;28;20048;-75
2022/12/22 09:07:12;;;;;;;7.53;6.82;;;;;;;;;;4960539;28;20045;-75
2022/12/22 09:09:38;;;;;;;8.35;7.15;;;;;;;;;;4958913;28;20030;-73
2022/12/22 09:12:04;;;;;;;7.82;7.13;;;;;;;;;;4970273;28;20054;-73
2022/12/22 09:14:31;;;;;;;7.65;6.90;;;;;;;;;;4969359;28;20030;-74
2022/12/22 09:16:56;;;;;;;10.35;7.43;;;;;;;;;;4955744;28;20534;-74
2022/12/22 09:19:22;;;;;;;9.35;6.75;;;;;;;;;;4962896;28;20031;-74
2022/12/22 09:21:48;;;;;;;8.45;6.50;;;;;;;;;;4964617;28;20505;-74
2022/12/22 09:24:14;;;;;;;7.65;6.97;;;;;;;;;;4967191;28;20133;-75
2022/12/22 09:26:39;;;;;;;7.95;7.35;;;;;;;;;;4967602;28;20034;-75
2022/12/22 09:29:05;;;;;;;10.13;7.28;;;;;;;;;;4974272;28;20039;-74
2022/12/22 09:31:32;;;;;;;9.00;7.38;;;;;;;;;;4970293;28;20038;-74
2022/12/22 09:33:57;;;;;;;8.13;7.47;;;;;;;;;;4960494;28;20128;-74
2022/12/22 09:36:26;;;;;;;21.35;8.00;;;;;;;;;;4968144;28;20653;-73
2022/12/22 09:38:52;;;;;;;8.57;7.68;;;;;;;;;;4960883;28;20041;-75
2022/12/22 09:41:39;;;;;;;10.20;8.32;;;;;;;;;;4957642;28;20047;-74
2022/12/22 09:44:13;;;;;;;8.68;7.30;;;;;;;;;;4963804;28;20037;-74
2022/12/22 09:46:39;;;;;;;8.13;7.38;;;;;;;;;;4970589;28;20042;-74
2022/12/22 09:49:06;;;;;;;11.05;6.93;;;;;;;;;;4965854;28;20054;-74
2022/12/22 09:51:41;;;;;;;8.25;7.57;;;;;;;;;;4967713;28;20510;-74
2022/12/22 09:54:09;;;;;;;9.38;7.40;;;;;;;;;;4973844;28;20034;-75
2022/12/22 09:56:35;;;;;;;8.85;7.97;;;;;;;;;;4970475;28;20022;-75
2022/12/22 09:59:00;;;;;;;11.38;7.32;;;;;;;;;;4967966;28;20114;-74
2022/12/22 10:01:38;;;;;;;13.45;7.30;;;;;;;;;;4962971;28;20401;-73
2022/12/22 10:04:25;;;;;;;8.00;7.22;;;;;;;;;;4968453;28;20039;-74
2022/12/22 10:07:06;;;;;;;9.77;7.03;;;;;;;;;;4971978;28;20126;-74
2022/12/22 10:09:32;;;;;;;7.70;6.97;;;;;;;;;;4960720;28;20046;-75
2022/12/22 10:12:02;;;;;;;7.05;6.55;;;;;;;;;;4969207;28;20035;-74
2022/12/22 10:14:34;;;;;;;8.10;6.40;;;;;;;;;;4965593;28;20085;-74
2022/12/22 10:17:24;;;;;;;7.60;6.80;;;;;;;;;;4966144;28;20046;-73
2022/12/22 10:19:53;;;;;;;7.35;6.68;;;;;;;;;;4969439;28;20041;-74
2022/12/22 10:22:29;;;;;;;7.32;6.65;;;;;;;;;;4969966;28;20074;-74
2022/12/22 10:24:55;;;;;;;8.20;7.40;;;;;;;;;;4963880;28;20101;-74
2022/12/22 10:27:25;;;;;;;8.43;7.63;;;;;;;;;;4964856;28;20548;-74
2022/12/22 10:29:51;;;;;;;8.35;7.10;;;;;;;;;;4948777;28;20049;-73
2022/12/22 10:32:20;;;;;;;9.00;6.78;;;;;;;;;;4966796;28;20035;-74
2022/12/22 10:35:00;;;;;;;10.33;6.90;;;;;;;;;;4960840;28;20039;-73
2022/12/22 10:37:33;;;;;;;8.40;7.60;;;;;;;;;;4958530;28;20305;-73
2022/12/22 10:40:15;;;;;;;8.90;7.03;;;;;;;;;;4961554;28;20543;-74
2022/12/22 10:42:46;;;;;;;9.18;7.20;;;;;;;;;;4953529;28;20030;-74
2022/12/22 10:45:21;;;;;;;7.85;7.20;;;;;;;;;;4956233;28;20563;-74
2022/12/22 10:47:52;;;;;;;9.68;6.88;;;;;;;;;;4960150;28;20707;-74
2022/12/22 10:50:20;;;;;;;8.35;7.22;;;;;;;;;;4963057;28;20550;-74
2022/12/22 10:52:54;;;;;;;7.45;6.68;;;;;;;;;;4960129;28;20042;-73
2022/12/22 10:55:24;;;;;;;7.20;6.68;;;;;;;;;;4958044;28;20138;-73
2022/12/22 10:57:50;;;;;;;8.80;7.38;;;;;;;;;;4960125;28;20632;-74
2022/12/22 11:00:24;;;;;;;7.68;6.95;;;;;;;;;;4959050;28;20042;-75
2022/12/22 11:02:52;;;;;;;8.00;7.15;;;;;;;;;;4960173;28;20714;-74
2022/12/22 11:05:18;;;;;;;8.77;7.85;;;;;;;;;;4968420;28;20027;-74
2022/12/22 11:07:48;;;;;;;12.07;7.80;;;;;;;;;;4962765;28;20038;-73
2022/12/22 11:10:13;;;;;;;8.55;6.95;;;;;;;;;;4960554;28;20030;-74
2022/12/22 11:13:01;;;;;;;11.35;7.15;;;;;;;;;;4966459;28;20169;-74
2022/12/22 11:15:38;;;;;;;7.85;6.80;;;;;;;;;;4981335;28;20487;-74
2022/12/22 11:18:25;;;;;;;7.82;6.53;;;;;;;;;;4969116;28;20031;-74
2022/12/22 11:21:01;;;;;;;8.13;6.88;;;;;;;;;;4962201;28;20043;-75
2022/12/22 11:23:42;;;;;;;9.43;6.10;;;;;;;;;;4961423;28;20041;-74
2022/12/22 11:26:26;;;;;;;6.93;6.32;;;;;;;;;;4963660;28;20038;-73
2022/12/22 11:29:02;;;;;;;7.00;6.30;;;;;;;;;;4967798;28;20103;-73
2022/12/22 11:32:16;;;;;;;9.07;7.55;;;;;;;;;;4958580;28;20043;-73
2022/12/22 11:34:53;;;;;;;9.13;7.70;;;;;;;;;;4989509;28;20046;-73
2022/12/22 11:37:35;;;;;;;8.57;7.00;;;;;;;;;;4989248;28;20108;-73
2022/12/22 11:40:08;;;;;;;8.05;7.20;;;;;;;;;;4988549;28;20060;-73
2022/12/22 11:42:47;;;;;;;15.93;7.20;;;;;;;;;;4992219;28;20104;-74
2022/12/22 11:45:54;;;;;;;18.48;7.78;;;;;;;;;;4986904;28;20148;-73
2022/12/22 11:48:53;;;;;;;7.75;6.90;;;;;;;;;;4942912;28;20039;-73
2022/12/22 11:51:21;;;;;;;;;;;;;;;;;;4949641;28;20509;-75
2022/12/22 11:54:03;;;;;;;7.90;7.10;;;;;;;;;;4941187;28;20394;-75
2022/12/22 11:56:39;;;;;;;8.30;7.22;;;;;;;;;;4945523;28;20063;-74
2022/12/22 11:59:19;;;;;;;7.72;7.15;;;;;;;;;;4947450;28;20083;-75
2022/12/22 12:02:00;;;;;;;8.18;7.38;;;;;;;;;;4944412;28;20126;-74
2022/12/22 12:04:31;;;;;;;9.98;7.30;;;;;;;;;;4943438;28;20058;-73
2022/12/22 12:07:28;;;;;;;8.93;7.72;;;;;;;;;;4935192;29;20145;-74
2022/12/22 12:10:05;;;;;;;8.10;7.30;;;;;;;;;;4900133;29;20562;-74
2022/12/22 12:13:09;;;;;;;7.97;7.38;;;;;;;;;;4895807;29;20052;-74
2022/12/22 12:15:49;;;;;;;7.63;6.88;;;;;;;;;;4880995;29;20056;-75
2022/12/22 12:18:55;;;;;;;10.95;7.30;;;;;;;;;;4896539;28;20492;-74
2022/12/22 12:21:27;;;;;;;7.93;7.32;;;;;;;;;;4939774;28;20055;-74
2022/12/22 12:24:17;;;;;;;7.55;6.78;;;;;;;;;;4938502;28;20070;-74
2022/12/22 12:27:05;;;;;;;10.52;7.85;;;;;;;;;;4952240;28;20726;-74
2022/12/22 12:30:03;;;;;;;8.55;7.53;;;;;;;;;;4924311;28;20042;-73
2022/12/22 12:32:38;;;;;;;7.47;6.85;;;;;;;;;;4943820;28;20043;-74
2022/12/22 12:35:20;;;;;;;7.55;6.95;;;;;;;;;;4941782;29;20538;-74
2022/12/22 12:37:52;;;;;;;7.65;7.00;;;;;;;;;;4933518;28;20630;-75
2022/12/22 12:40:30;;;;;;;8.50;7.70;;;;;;;;;;4934185;28;20043;-74
2022/12/22 12:42:56;;;;;;;8.02;7.22;;;;;;;;;;4931569;28;20618;-72
2022/12/22 12:45:51;;;;;;;9.38;8.00;;;;;;;;;;4944343;28;20117;-73
2022/12/22 12:48:20;;;;;;;7.95;7.25;;;;;;;;;;4954700;28;20391;-72
2022/12/22 12:50:46;;;;;;;7.97;7.45;;;;;;;;;;4965412;28;20450;-72
2022/12/22 12:53:12;;;;;;;9.00;7.60;;;;;;;;;;4971419;28;20498;-73
2022/12/22 12:55:38;;;;;;;8.90;7.38;;;;;;;;;;4971881;28;20034;-71
2022/12/22 12:58:09;;;;;;;7.50;6.90;;;;;;;;;;4964193;28;20462;-73
2022/12/22 13:00:34;;;;;;;7.55;6.93;;;;;;;;;;4970843;28;20050;-73
2022/12/22 13:03:08;;;;;;;7.63;6.93;;;;;;;;;;4960279;28;20038;-75
2022/12/22 13:05:53;;;;;;;7.65;7.15;;;;;;;;;;4963977;28;20117;-75
2022/12/22 13:08:23;;;;;;;7.78;7.07;;;;;;;;;;4961340;28;20059;-75
2022/12/22 13:10:52;;;;;;;6.82;6.43;;;;;;;;;;4977360;28;20671;-74
2022/12/22 13:13:20;;;;;;;7.60;7.05;;;;;;;;;;4969063;28;20078;-75
2022/12/22 13:16:07;;;;;;;7.07;6.57;;;;;;;;;;4964751;28;20049;-75
2022/12/22 13:18:33;;;;;;;7.07;6.65;;;;;;;;;;4949253;28;20058;-76
2022/12/22 13:21:01;;;;;;;7.55;6.95;;;;;;;;;;4969187;28;20041;-75
2022/12/22 13:23:34;;;;;;;7.13;6.53;;;;;;;;;;4978231;28;20077;-75
2022/12/22 13:26:06;;;;;;;7.57;6.97;;;;;;;;;;4977002;28;20038;-76
2022/12/22 13:28:35;;;;;;;6.88;6.45;;;;;;;;;;4971979;28;20038;-75
2022/12/22 13:31:11;;;;;;;7.85;7.07;;;;;;;;;;4977517;28;20403;-75
2022/12/22 13:33:39;;;;;;;7.22;6.63;;;;;;;;;;4969272;28;20046;-75
2022/12/22 13:36:13;;;;;;;7.13;6.63;;;;;;;;;;4971814;28;20034;-76
2022/12/22 13:38:39;;;;;;;6.88;6.45;;;;;;;;;;4976656;28;20042;-75
2022/12/22 13:41:21;;;;;;;7.95;7.28;;;;;;;;;;4975829;28;20394;-75
2022/12/22 13:43:53;;;;;;;8.73;7.20;;;;;;;;;;4962659;28;20039;-74
2022/12/22 13:46:19;;;;;;;8.02;7.35;;;;;;;;;;4969471;28;20527;-75
2022/12/22 13:48:48;;;;;;;7.82;7.25;;;;;;;;;;4974730;28;20034;-75
2022/12/22 13:51:18;;;;;;;;;;;;;;;;;;4971710;28;20112;-74
2022/12/22 13:53:47;;;;;;;8.65;7.82;;;;;;;;;;4962715;28;20264;-76
2022/12/22 13:56:22;;;;;;;9.70;7.45;;;;;;;;;;4962135;28;20407;-75
2022/12/22 13:58:59;;;;;;;8.07;7.30;;;;;;;;;;4973363;28;20034;-75
2022/12/22 14:01:25;;;;;;;8.52;7.60;;;;;;;;;;4973710;28;20038;-75
2022/12/22 14:03:56;;;;;;;8.20;7.50;;;;;;;;;;4966996;28;20035;-75
2022/12/22 14:06:32;;;;;;;11.40;7.47;;;;;;;;;;4969937;28;20061;-75
2022/12/22 14:09:11;;;;;;;7.65;7.03;;;;;;;;;;4969804;28;20043;-75
2022/12/22 14:11:36;;;;;;;9.30;8.20;;;;;;;;;;4959041;28;20038;-75
2022/12/22 14:14:35;;;;;;;7.80;7.03;;;;;;;;;;4956740;28;20057;-75
2022/12/22 14:17:01;;;;;;;11.40;7.72;;;;;;;;;;4965309;28;20046;-75
2022/12/22 14:19:32;;;;;;;9.43;7.57;;;;;;;;;;4968387;28;20639;-75
2022/12/22 14:22:24;;;;;;;7.72;7.13;;;;;;;;;;4965953;28;20672;-74
2022/12/22 14:24:54;;;;;;;8.40;7.63;;;;;;;;;;4960046;28;20053;-74
2022/12/22 14:27:28;;;;;;;8.90;8.10;;;;;;;;;;4967702;28;20524;-74
2022/12/22 14:29:55;;;;;;;8.68;7.75;;;;;;;;;;4962683;28;20035;-74
2022/12/22 14:32:42;;;;;;;9.23;7.22;;;;;;;;;;4961455;28;20395;-74
2022/12/22 14:35:20;;;;;;;8.25;7.55;;;;;;;;;;4964714;28;20540;-74
2022/12/22 14:37:47;;;;;;;11.48;7.90;;;;;;;;;;4970417;28;20161;-74
2022/12/22 14:40:33;;;;;;;8.35;7.65;;;;;;;;;;4963138;28;20067;-74
2022/12/22 14:43:03;;;;;;;10.25;7.70;;;;;;;;;;4938325;28;20042;-73
2022/12/22 14:45:29;;;;;;;8.18;7.50;;;;;;;;;;4971688;28;20078;-74
2022/12/22 14:47:56;;;;;;;8.60;7.22;;;;;;;;;;4969422;28;20082;-74
2022/12/22 14:50:26;;;;;;;10.18;7.55;;;;;;;;;;4951209;28;20039;-74
2022/12/22 14:52:55;;;;;;;9.65;7.57;;;;;;;;;;4961558;28;20039;-75
2022/12/22 14:55:39;;;;;;;10.57;8.30;;;;;;;;;;4968528;28;20043;-72
2022/12/22 14:58:13;;;;;;;8.10;7.45;;;;;;;;;;4957355;28;20616;-73
2022/12/22 15:00:47;;;;;;;10.57;7.57;;;;;;;;;;4956626;28;20035;-73
2022/12/22 15:03:32;;;;;;;9.18;8.20;;;;;;;;;;4964327;28;20023;-74
2022/12/22 15:06:26;;;;;;;11.52;7.65;;;;;;;;;;4962919;28;20035;-74
2022/12/22 15:09:11;;;;;;;9.05;7.40;;;;;;;;;;4960439;28;20066;-72
2022/12/22 15:11:43;;;;;;;9.75;7.70;;;;;;;;;;4966228;28;20548;-73
2022/12/22 15:14:29;;;;;;;8.05;7.22;;;;;;;;;;4973754;28;20417;-73
2022/12/22 15:17:00;;;;;;;9.73;6.95;;;;;;;;;;4969010;28;20038;-73
2022/12/22 15:19:29;;;;;;;9.82;7.75;;;;;;;;;;4974064;28;20073;-72
2022/12/22 15:21:55;;;;;;;;;;;;;;;;;;4972858;28;20031;-73
2022/12/22 15:24:20;;;;;;;10.80;7.97;;;;;;;;;;4957372;28;19925;-73
2022/12/22 15:26:46;;;;;;;9.07;7.35;;;;;;;;;;4972519;28;20051;-73
2022/12/22 15:29:12;;;;;;;8.60;7.53;;;;;;;;;;4972823;28;20035;-73
2022/12/22 15:31:38;;;;;;;8.13;7.43;;;;;;;;;;4968441;28;20538;-73
2022/12/22 15:34:11;;;;;;;7.95;7.32;;;;;;;;;;4967435;28;20027;-74
2022/12/22 15:36:37;;;;;;;10.45;7.60;;;;;;;;;;4969690;28;20065;-73
2022/12/22 15:39:03;;;;;;;9.32;8.00;;;;;;;;;;4968897;28;20069;-74
2022/12/22 15:41:28;;;;;;;13.48;7.25;;;;;;;;;;4967605;28;20446;-73
2022/12/22 15:43:54;;;;;;;9.43;7.50;;;;;;;;;;4978183;28;20035;-70
2022/12/22 15:46:20;;;;;;;9.25;7.45;;;;;;;;;;4981956;28;20173;-69
2022/12/22 15:48:46;;;;;;;8.52;7.55;;;;;;;;;;4975541;28;20047;-69
2022/12/22 15:51:24;;;;;;;9.80;7.13;;;;;;;;;;4965660;28;20050;-68
2022/12/22 15:53:50;;;;;;;16.70;7.50;;;;;;;;;;4968277;28;20035;-69
2022/12/22 15:56:22;;;;;;;14.23;7.50;;;;;;;;;;4968201;28;20038;-69
2022/12/22 15:58:48;;;;;;;12.90;7.63;;;;;;;;;;4966981;28;20031;-69
2022/12/22 16:01:14;;;;;;;7.65;6.97;;;;;;;;;;4974714;28;20565;-69
2022/12/22 16:03:39;;;;;;;7.35;6.65;;;;;;;;;;4975990;28;20101;-69
2022/12/22 16:06:07;;;;;;;12.57;7.30;;;;;;;;;;4963033;28;20085;-69
2022/12/22 16:08:36;;;;;;;8.43;7.50;;;;;;;;;;4969382;28;20047;-69
2022/12/22 16:11:03;;;;;;;10.68;7.80;;;;;;;;;;4973087;28;20038;-69
2022/12/22 16:13:29;;;;;;;8.30;7.35;;;;;;;;;;4969307;28;20097;-69
2022/12/22 16:15:55;;;;;;;10.55;7.38;;;;;;;;;;4965393;28;20035;-69
2022/12/22 16:18:21;;;;;;;10.23;7.70;;;;;;;;;;4965714;28;20042;-69
2022/12/22 16:20:50;;;;;;;12.45;8.65;;;;;;;;;;4972181;28;20035;-68
2022/12/22 16:23:19;;;;;;;8.30;7.25;;;;;;;;;;4975872;28;20065;-69
2022/12/22 16:25:46;;;;;;;12.13;8.15;;;;;;;;;;4971235;28;20085;-69
2022/12/22 16:28:16;;;;;;;10.30;7.47;;;;;;;;;;4968820;28;20038;-69
2022/12/22 16:30:41;;;;;;;8.75;7.07;;;;;;;;;;4963635;28;20038;-69
2022/12/22 16:33:10;;;;;;;13.20;7.53;;;;;;;;;;4971734;28;20038;-69
2022/12/22 16:35:36;;;;;;;17.75;7.25;;;;;;;;;;4968856;28;20041;-69
2022/12/22 16:38:02;;;;;;;8.13;7.32;;;;;;;;;;4965660;28;20046;-69
2022/12/22 16:40:28;;;;;;;8.48;7.70;;;;;;;;;;4958437;28;20039;-69
2022/12/22 16:43:21;;;;;;;8.60;7.05;;;;;;;;;;4940851;28;20152;-69
2022/12/22 16:45:47;;;;;;;8.45;7.63;;;;;;;;;;4957415;28;20058;-69
2022/12/22 16:48:47;;;;;;;16.55;8.70;;;;;;;;;;4961793;28;20035;-69
2022/12/22 16:51:17;;;;;;;8.15;7.22;;;;;;;;;;4965632;28;20170;-69
2022/12/22 16:53:42;;;;;;;18.45;8.65;;;;;;;;;;4966977;28;20062;-68
2022/12/22 16:56:25;;;;;;;10.10;7.75;;;;;;;;;;4960773;28;20118;-69
2022/12/22 16:58:51;;;;;;;14.85;8.13;;;;;;;;;;4959429;28;20047;-69
2022/12/22 17:01:37;;;;;;;12.63;7.60;;;;;;;;;;4962438;28;20038;-68
2022/12/22 17:04:29;;;;;;;16.08;7.53;;;;;;;;;;4967719;28;20038;-70
2022/12/22 17:06:57;;;;;;;14.32;6.97;;;;;;;;;;4971492;28;20042;-70
2022/12/22 17:09:31;;;;;;;11.77;8.45;;;;;;;;;;4967435;28;20035;-69
2022/12/22 17:11:59;;;;;;;15.63;8.70;;;;;;;;;;4975338;28;20555;-69
2022/12/22 17:14:35;;;;;;;12.60;8.18;;;;;;;;;;4970777;28;20038;-69
2022/12/22 17:17:01;;;;;;;16.60;7.85;;;;;;;;;;4983171;28;20067;-69
2022/12/22 17:19:27;;;;;;;12.88;7.72;;;;;;;;;;4957529;28;20043;-69
2022/12/22 17:21:54;;;;;;;10.35;7.63;;;;;;;;;;4964402;28;21665;-69
2022/12/22 17:24:22;;;;;;;10.70;8.18;;;;;;;;;;4980745;28;20050;-69
2022/12/22 17:26:48;;;;;;;17.95;8.77;;;;;;;;;;4970349;28;20069;-70
2022/12/22 17:29:19;;;;;;;14.55;7.70;;;;;;;;;;4970014;28;20066;-70
2022/12/22 17:31:45;;;;;;;8.27;7.40;;;;;;;;;;4977328;28;20039;-70
2022/12/22 17:34:20;;;;;;;18.73;8.13;;;;;;;;;;4974893;28;20042;-69
2022/12/22 17:36:47;;;;;;;14.25;7.88;;;;;;;;;;4972612;28;20035;-70
2022/12/22 17:39:19;;;;;;;17.30;7.93;;;;;;;;;;4956593;28;20038;-70
2022/12/22 17:41:46;;;;;;;11.90;7.38;;;;;;;;;;4970463;28;20532;-70
2022/12/22 17:44:15;;;;;;;14.35;8.38;;;;;;;;;;4963831;28;20133;-70
2022/12/22 17:46:41;;;;;;;11.13;7.80;;;;;;;;;;4960559;28;20109;-67
2022/12/22 17:49:06;;;;;;;13.40;8.15;;;;;;;;;;4963882;28;20038;-69
2022/12/22 17:51:32;;;;;;;12.27;8.32;;;;;;;;;;4963907;28;20046;-70
2022/12/22 17:53:58;;;;;;;14.75;8.38;;;;;;;;;;4965323;28;20058;-70
2022/12/22 17:56:26;;;;;;;18.45;8.07;;;;;;;;;;4972886;28;20046;-69
2022/12/22 17:58:52;;;;;;;12.82;8.60;;;;;;;;;;4961649;28;20045;-69
2022/12/22 18:01:24;;;;;;;15.18;8.52;;;;;;;;;;4963084;28;20117;-69
2022/12/22 18:03:50;;;;;;;13.98;7.53;;;;;;;;;;4954396;28;20038;-69
2022/12/22 18:06:19;;;;;;;15.05;8.68;;;;;;;;;;4957872;28;20475;-69
2022/12/22 18:08:46;;;;;;;14.23;8.75;;;;;;;;;;4961885;28;20035;-70
2022/12/22 18:11:12;;;;;;;23.55;9.13;;;;;;;;;;4973214;28;20117;-69
2022/12/22 18:13:38;;;;;;;10.90;7.47;;;;;;;;;;4963321;28;20038;-67
2022/12/22 18:16:03;;;;;;;23.20;8.52;;;;;;;;;;4957467;28;20817;-67
2022/12/22 18:18:30;;;;;;;11.48;8.32;;;;;;;;;;4970203;28;20824;-70
2022/12/22 18:20:56;;;;;;;14.77;8.00;;;;;;;;;;4977110;28;20042;-68
2022/12/22 18:23:33;;;;;;;12.25;8.73;;;;;;;;;;4968569;28;20545;-68
2022/12/22 18:25:58;;;;;;;15.15;8.80;;;;;;;;;;4960219;28;20666;-68
2022/12/22 18:28:24;;;;;;;21.73;10.02;;;;;;;;;;4963626;28;20045;-68
2022/12/22 18:30:50;;;;;;;15.18;9.15;;;;;;;;;;4960360;28;20034;-68
2022/12/22 18:33:15;;;;;;;20.95;9.80;;;;;;;;;;4964273;28;20027;-68